createdAt,value
2022-08-05T00:00:54.219Z,24.30
2022-08-05T00:03:20.933Z,24.30
2022-08-05T00:06:04.909Z,24.20
2022-08-05T00:08:36.745Z,24.20
2022-08-05T00:11:20.612Z,24.10
2022-08-05T00:13:54.472Z,24.10
2022-08-05T00:16:36.264Z,24.00
2022-08-05T00:19:08.681Z,24.00
2022-08-05T00:21:35.982Z,23.90
2022-08-05T00:24:09.816Z,23.90
2022-08-05T00:26:37.493Z,23.80
2022-08-05T00:29:04.263Z,23.80
2022-08-05T00:31:53.986Z,23.80
2022-08-05T00:34:56.865Z,23.80
2022-08-05T00:37:12.338Z,23.80
2022-08-05T00:39:44.163Z,23.70
2022-08-05T00:42:32.379Z,23.70
2022-08-05T00:44:59.978Z,23.60
2022-08-05T00:47:31.778Z,23.60
2022-08-05T00:50:13.642Z,23.50
2022-08-05T00:52:41.892Z,23.50
2022-08-05T00:55:12.338Z,23.40
2022-08-05T00:57:57.832Z,23.30
2022-08-05T01:00:27.236Z,23.30
2022-08-05T01:02:54.367Z,23.30
2022-08-05T01:05:21.555Z,23.20
2022-08-05T01:08:30.731Z,23.20
2022-08-05T01:10:51.622Z,23.20
2022-08-05T01:13:58.612Z,23.10
2022-08-05T01:16:38.358Z,23.10
2022-08-05T01:19:30.208Z,23.10
2022-08-05T01:22:15.566Z,23.10
2022-08-05T01:25:02.898Z,23.00
2022-08-05T01:27:59.847Z,23.00
2022-08-05T01:30:34.550Z,22.90
2022-08-05T01:33:06.293Z,22.90
2022-08-05T01:35:50.956Z,22.80
2022-08-05T01:38:26.820Z,22.70
2022-08-05T01:40:57.377Z,22.60
2022-08-05T01:43:26.313Z,22.50
2022-08-05T01:45:56.397Z,22.40
2022-08-05T01:48:29.244Z,22.40
2022-08-05T01:50:57.590Z,22.30
2022-08-05T01:53:54.962Z,22.30
2022-08-05T01:58:10.722Z,22.30
2022-08-05T01:59:06.947Z,22.30
2022-08-05T02:01:39.882Z,22.30
2022-08-05T02:04:09.006Z,22.20
2022-08-05T02:06:38.948Z,22.20
2022-08-05T02:09:07.126Z,22.20
2022-08-05T02:11:48.099Z,22.20
2022-08-05T02:14:31.882Z,22.20
2022-08-05T02:17:06.886Z,22.20
2022-08-05T02:19:40.613Z,22.20
2022-08-05T02:22:26.742Z,22.20
2022-08-05T02:25:02.264Z,22.10
2022-08-05T02:27:59.427Z,22.10
2022-08-05T02:30:20.566Z,22.10
2022-08-05T02:32:51.945Z,22.10
2022-08-05T02:35:28.186Z,22.00
2022-08-05T02:38:02.315Z,22.00
2022-08-05T02:40:30.002Z,22.00
2022-08-05T02:42:58.774Z,22.00
2022-08-05T02:45:26.686Z,22.00
2022-08-05T02:48:09.821Z,21.90
2022-08-05T02:50:43.951Z,21.80
2022-08-05T02:53:18.848Z,21.80
2022-08-05T02:55:55.315Z,21.70
2022-08-05T02:58:28.904Z,21.70
2022-08-05T03:01:01.846Z,21.60
2022-08-05T03:03:33.574Z,21.60
2022-08-05T03:06:54.300Z,21.60
2022-08-05T03:08:52.325Z,21.60
2022-08-05T03:11:53.307Z,21.60
2022-08-05T03:14:13.591Z,21.60
2022-08-05T03:16:40.902Z,21.60
2022-08-05T03:19:17.239Z,21.50
2022-08-05T03:21:54.696Z,21.50
2022-08-05T03:24:29.940Z,21.50
2022-08-05T03:26:58.503Z,21.50
2022-08-05T03:29:45.216Z,21.40
2022-08-05T03:32:14.447Z,21.40
2022-08-05T03:34:42.494Z,21.30
2022-08-05T03:37:17.701Z,21.30
2022-08-05T03:40:01.582Z,21.30
2022-08-05T03:42:32.144Z,21.20
2022-08-05T03:44:59.353Z,21.20
2022-08-05T03:47:30.420Z,21.00
2022-08-05T03:50:01.736Z,21.00
2022-08-05T03:52:50.492Z,20.90
2022-08-05T03:56:04.809Z,20.90
2022-08-05T03:58:21.485Z,20.90
2022-08-05T04:00:59.958Z,20.80
2022-08-05T04:03:29.395Z,20.80
2022-08-05T04:05:57.805Z,20.70
2022-08-05T04:08:34.883Z,20.80
2022-08-05T04:11:05.127Z,20.70
2022-08-05T04:13:50.506Z,20.80
2022-08-05T04:16:25.563Z,20.80
2022-08-05T04:18:59.952Z,20.90
2022-08-05T04:22:10.215Z,20.90
2022-08-05T04:24:18.762Z,20.90
2022-08-05T04:26:45.688Z,21.00
2022-08-05T04:29:13.360Z,21.10
2022-08-05T04:31:41.197Z,21.20
2022-08-05T04:34:31.756Z,21.20
2022-08-05T04:36:56.531Z,21.30
2022-08-05T04:39:23.840Z,21.40
2022-08-05T04:41:51.387Z,21.40
2022-08-05T04:44:21.545Z,21.50
2022-08-05T04:46:57.217Z,21.50
2022-08-05T04:49:38.348Z,21.60
2022-08-05T04:52:12.262Z,21.60
2022-08-05T04:54:38.929Z,21.60
2022-08-05T04:57:05.651Z,21.60
2022-08-05T04:59:36.607Z,21.70
2022-08-05T05:02:08.338Z,21.70
2022-08-05T05:04:51.982Z,21.80
2022-08-05T05:07:18.769Z,21.80
2022-08-05T05:09:55.929Z,21.90
2022-08-05T05:12:24.320Z,22.00
2022-08-05T05:14:54.322Z,22.10
2022-08-05T05:17:24.329Z,22.20
2022-08-05T05:19:54.788Z,22.30
2022-08-05T05:22:22.608Z,22.50
2022-08-05T05:24:57.446Z,22.60
2022-08-05T05:27:44.838Z,22.80
2022-08-05T05:30:29.304Z,22.90
2022-08-05T05:33:00.933Z,23.10
2022-08-05T05:35:39.647Z,23.30
2022-08-05T05:38:13.201Z,23.50
2022-08-05T05:40:48.111Z,23.60
2022-08-05T05:43:27.736Z,23.80
2022-08-05T05:46:03.635Z,23.90
2022-08-05T05:48:32.235Z,24.10
2022-08-05T05:51:15.273Z,24.20
2022-08-05T05:53:54.026Z,24.30
2022-08-05T05:56:26.080Z,24.40
2022-08-05T05:59:03.241Z,24.40
2022-08-05T06:01:37.396Z,24.60
2022-08-05T06:04:07.311Z,24.60
2022-08-05T06:06:35.110Z,24.70
2022-08-05T06:09:04.064Z,24.80
2022-08-05T06:11:31.633Z,24.90
2022-08-05T06:14:00.384Z,25.10
2022-08-05T06:16:33.051Z,25.30
2022-08-05T06:19:05.830Z,25.40
2022-08-05T06:21:36.770Z,25.60
2022-08-05T06:24:06.298Z,25.80
2022-08-05T06:26:38.215Z,25.90
2022-08-05T06:29:06.439Z,25.90
2022-08-05T06:31:52.106Z,25.90
2022-08-05T06:34:20.066Z,26.00
2022-08-05T06:36:56.738Z,26.10
2022-08-05T06:39:26.783Z,26.20
2022-08-05T06:41:59.212Z,26.40
2022-08-05T06:44:26.134Z,26.50
2022-08-05T06:46:52.855Z,26.50
2022-08-05T06:49:50.560Z,26.40
2022-08-05T06:52:08.186Z,26.00
2022-08-05T06:54:54.844Z,25.90
2022-08-05T06:58:03.493Z,26.00
2022-08-05T07:00:36.542Z,26.30
2022-08-05T07:03:09.800Z,26.30
2022-08-05T07:05:37.783Z,26.30
2022-08-05T07:08:10.708Z,26.50
2022-08-05T07:10:39.095Z,26.40
2022-08-05T07:13:58.571Z,26.80
2022-08-05T07:18:00.372Z,26.90
2022-08-05T07:22:28.390Z,27.50
2022-08-05T07:24:58.699Z,27.80
2022-08-05T07:27:27.525Z,27.90
2022-08-05T07:30:28.053Z,28.30
2022-08-05T07:32:59.503Z,28.50
2022-08-05T07:36:03.642Z,29.10
2022-08-05T07:38:32.196Z,29.30
2022-08-05T07:41:04.421Z,29.50
2022-08-05T07:43:46.737Z,29.80
2022-08-05T07:46:24.783Z,30.00
2022-08-05T07:49:02.269Z,29.90
2022-08-05T07:51:48.427Z,29.80
2022-08-05T07:54:26.591Z,29.90
2022-08-05T07:59:53.663Z,30.20
2022-08-05T08:02:31.421Z,30.50
2022-08-05T08:05:14.117Z,30.60
2022-08-05T08:08:00.243Z,30.60
2022-08-05T08:10:27.691Z,30.50
2022-08-05T08:12:54.420Z,30.60
2022-08-05T08:22:09.057Z,31.30
2022-08-05T08:24:51.087Z,30.30
2022-08-05T08:27:19.559Z,30.20
2022-08-05T08:30:05.360Z,29.80
2022-08-05T08:32:41.699Z,29.20
2022-08-05T08:35:18.245Z,29.20
2022-08-05T08:37:46.091Z,29.30
2022-08-05T08:40:20.289Z,29.10
2022-08-05T08:42:52.448Z,29.20
2022-08-05T08:45:26.524Z,29.10
2022-08-05T08:48:07.319Z,29.10
2022-08-05T08:51:03.631Z,29.00
2022-08-05T08:53:36.010Z,29.10
2022-08-05T08:56:06.062Z,28.90
2022-08-05T08:58:43.347Z,28.90
2022-08-05T09:01:15.848Z,28.90
2022-08-05T09:03:47.411Z,29.00
2022-08-05T09:06:17.187Z,29.10
2022-08-05T09:08:45.316Z,29.10
2022-08-05T09:11:13.916Z,29.20
2022-08-05T09:14:10.167Z,29.20
2022-08-05T09:16:30.045Z,29.50
2022-08-05T09:18:59.447Z,29.60
2022-08-05T09:22:17.858Z,29.70
2022-08-05T09:24:15.595Z,29.70
2022-08-05T09:26:47.469Z,29.50
2022-08-05T09:29:19.182Z,29.40
2022-08-05T09:32:42.299Z,29.30
2022-08-05T09:34:56.025Z,29.40
2022-08-05T09:38:17.719Z,29.40
2022-08-05T09:40:37.886Z,29.50
2022-08-05T09:43:10.410Z,29.60
2022-08-05T09:46:06.176Z,29.70
2022-08-05T09:48:34.411Z,29.60
2022-08-05T09:51:04.339Z,30.00
2022-08-05T09:53:53.662Z,30.40
2022-08-05T09:56:30.335Z,30.60
2022-08-05T09:58:58.114Z,30.80
2022-08-05T10:01:32.324Z,31.00
2022-08-05T10:04:28.657Z,31.00
2022-08-05T10:06:59.590Z,31.20
2022-08-05T10:09:29.516Z,31.00
2022-08-05T10:12:30.615Z,31.00
2022-08-05T10:15:23.595Z,31.30
2022-08-05T10:18:17.532Z,31.50
2022-08-05T10:21:11.748Z,31.20
2022-08-05T10:24:00.150Z,31.10
2022-08-05T10:26:31.583Z,30.60
2022-08-05T10:28:59.635Z,29.90
2022-08-05T10:32:53.047Z,29.30
2022-08-05T10:34:13.830Z,29.00
2022-08-05T10:36:41.998Z,28.60
2022-08-05T10:39:24.484Z,28.40
2022-08-05T10:42:18.415Z,28.30
2022-08-05T10:44:49.504Z,27.70
2022-08-05T10:47:26.457Z,27.70
2022-08-05T10:50:33.096Z,27.50
2022-08-05T10:52:59.812Z,27.40
2022-08-05T10:55:27.753Z,27.30
2022-08-05T10:58:20.974Z,27.20
2022-08-05T11:00:48.500Z,27.10
2022-08-05T11:03:25.434Z,26.90
2022-08-05T11:06:16.155Z,26.90
2022-08-05T11:09:31.864Z,26.60
2022-08-05T11:12:06.117Z,26.50
2022-08-05T11:18:00.249Z,26.10
2022-08-05T11:20:46.351Z,26.00
2022-08-05T11:24:05.092Z,26.00
2022-08-05T11:26:40.317Z,25.70
2022-08-05T11:29:13.811Z,25.70
2022-08-05T11:31:56.561Z,25.60
2022-08-05T11:34:37.918Z,25.50
2022-08-05T11:37:06.057Z,25.50
2022-08-05T11:39:55.386Z,25.40
2022-08-05T11:42:28.336Z,25.30
2022-08-05T11:45:03.466Z,25.10
2022-08-05T11:47:48.854Z,24.90
2022-08-05T11:50:17.706Z,24.80
2022-08-05T11:52:48.780Z,24.60
2022-08-05T11:55:17.228Z,24.50
2022-08-05T11:58:10.145Z,24.50
2022-08-05T12:00:38.087Z,24.50
2022-08-05T12:03:28.386Z,24.60
2022-08-05T12:06:01.761Z,24.80
2022-08-05T12:08:28.983Z,24.90
2022-08-05T12:11:05.709Z,25.20
2022-08-05T12:13:49.285Z,26.10
2022-08-05T12:16:19.206Z,26.90
2022-08-05T12:18:52.484Z,27.40
2022-08-05T12:21:30.336Z,27.50
2022-08-05T12:24:06.710Z,27.60
2022-08-05T12:26:36.430Z,27.50
2022-08-05T12:29:09.458Z,27.60
2022-08-05T12:31:46.246Z,27.70
2022-08-05T12:34:20.554Z,27.60
2022-08-05T12:36:50.245Z,27.50
2022-08-05T12:39:17.793Z,27.70
2022-08-05T12:41:45.390Z,28.10
2022-08-05T12:44:14.617Z,28.10
2022-08-05T12:46:56.289Z,28.50
2022-08-05T12:49:25.565Z,28.70
2022-08-05T12:52:14.263Z,28.80
2022-08-05T12:54:49.662Z,29.50
2022-08-05T12:57:17.189Z,29.90
2022-08-05T13:01:56.797Z,30.20
2022-08-05T13:02:37.352Z,30.70
2022-08-05T13:05:07.617Z,31.30
2022-08-05T13:10:21.901Z,32.00
2022-08-05T13:12:57.120Z,32.10
2022-08-05T13:15:35.922Z,32.40
2022-08-05T13:18:19.688Z,32.50
2022-08-05T13:20:49.401Z,32.50
2022-08-05T13:23:18.302Z,32.60
2022-08-05T13:25:51.806Z,32.40
2022-08-05T13:28:25.814Z,32.20
2022-08-05T13:30:53.465Z,32.50
2022-08-05T13:34:23.460Z,32.60
2022-08-05T13:36:09.495Z,32.80
2022-08-05T13:38:38.561Z,33.20
2022-08-05T13:41:09.972Z,33.00
2022-08-05T13:43:45.475Z,32.80
2022-08-05T13:47:01.928Z,33.10
2022-08-05T13:49:10.312Z,32.80
2022-08-05T13:51:41.543Z,32.50
2022-08-05T13:54:11.914Z,32.30
2022-08-05T13:56:45.295Z,32.30
2022-08-05T13:59:20.155Z,32.20
2022-08-05T14:01:57.469Z,32.60
2022-08-05T14:04:52.194Z,32.10
2022-08-05T14:07:25.668Z,32.50
2022-08-05T14:10:09.592Z,32.50
2022-08-05T14:12:36.787Z,32.70
2022-08-05T14:15:06.050Z,32.80
2022-08-05T14:17:51.832Z,33.10
2022-08-05T14:20:22.022Z,33.40
2022-08-05T14:22:54.339Z,33.40
2022-08-05T14:25:22.485Z,33.10
2022-08-05T14:27:54.509Z,33.00
2022-08-05T14:30:21.535Z,32.80
2022-08-05T14:32:49.037Z,32.30
2022-08-05T14:35:16.212Z,31.80
2022-08-05T14:37:52.149Z,31.40
2022-08-05T14:40:24.492Z,31.60
2022-08-05T14:42:51.864Z,31.30
2022-08-05T14:45:18.692Z,31.10
2022-08-05T14:48:02.513Z,30.80
2022-08-05T14:50:31.017Z,30.60
2022-08-05T14:52:59.562Z,30.10
2022-08-05T14:55:28.778Z,29.90
2022-08-05T14:58:12.171Z,29.80
2022-08-05T15:00:59.787Z,29.40
2022-08-05T15:03:33.142Z,29.10
2022-08-05T15:06:07.756Z,29.10
2022-08-05T15:08:59.390Z,28.80
2022-08-05T15:11:51.651Z,28.70
2022-08-05T15:14:33.348Z,28.60
2022-08-05T15:17:01.155Z,28.60
2022-08-05T15:19:27.944Z,28.70
2022-08-05T15:21:58.005Z,28.70
2022-08-05T15:24:27.554Z,28.50
2022-08-05T15:26:55.997Z,28.40
2022-08-05T15:29:29.779Z,28.20
2022-08-05T15:31:57.706Z,28.00
2022-08-05T15:34:33.184Z,27.90
2022-08-05T15:37:06.112Z,27.80
2022-08-05T15:40:59.226Z,27.70
2022-08-05T15:42:56.706Z,27.50
2022-08-05T15:45:07.612Z,27.40
2022-08-05T15:47:37.301Z,27.40
2022-08-05T15:50:07.206Z,27.40
2022-08-05T15:52:53.621Z,27.30
2022-08-05T15:55:24.554Z,27.30
2022-08-05T15:57:51.621Z,27.30
2022-08-05T16:00:26.124Z,27.20
2022-08-05T16:03:05.943Z,27.20
2022-08-05T16:05:32.614Z,27.10
2022-08-05T16:07:59.283Z,27.00
2022-08-05T16:10:27.101Z,26.90
2022-08-05T16:12:56.010Z,26.80
2022-08-05T16:15:23.596Z,26.70
2022-08-05T16:17:57.801Z,26.70
2022-08-05T16:20:25.452Z,26.70
2022-08-05T16:22:52.201Z,26.60
2022-08-05T16:25:18.867Z,26.60
2022-08-05T16:27:59.740Z,26.40
2022-08-05T16:30:32.319Z,26.30
2022-08-05T16:32:59.564Z,26.10
2022-08-05T16:35:28.611Z,25.90
2022-08-05T16:38:11.943Z,25.70
2022-08-05T16:40:51.636Z,25.70
2022-08-05T16:43:26.546Z,25.50
2022-08-05T16:46:07.434Z,25.50
2022-08-05T16:48:39.799Z,25.50
2022-08-05T16:51:09.186Z,25.50
2022-08-05T16:54:03.991Z,25.40
2022-08-05T16:56:25.070Z,25.40
2022-08-05T16:58:52.020Z,25.40
2022-08-05T17:01:19.123Z,25.20
2022-08-05T17:03:46.436Z,25.20
2022-08-05T17:06:16.392Z,25.10
2022-08-05T17:08:52.741Z,25.00
2022-08-05T17:11:24.992Z,25.00
2022-08-05T17:14:00.413Z,25.00
2022-08-05T17:16:36.173Z,25.00
2022-08-05T17:19:07.472Z,24.90
2022-08-05T17:21:36.082Z,24.90
2022-08-05T17:24:30.375Z,24.80
2022-08-05T17:26:56.253Z,24.80
2022-08-05T17:29:33.375Z,24.80
2022-08-05T17:32:06.812Z,24.80
2022-08-05T17:34:35.261Z,24.80
2022-08-05T17:37:02.043Z,24.80
2022-08-05T17:39:33.902Z,24.90
2022-08-05T17:42:18.981Z,24.90
2022-08-05T17:44:50.435Z,24.90
2022-08-05T17:47:22.047Z,24.80
2022-08-05T17:49:59.780Z,24.80
2022-08-05T17:52:30.957Z,24.70
2022-08-05T17:54:57.961Z,24.60
2022-08-05T17:57:24.701Z,24.30
2022-08-05T18:00:03.548Z,24.10
2022-08-05T18:02:32.965Z,23.80
2022-08-05T18:05:02.792Z,23.50
2022-08-05T18:07:40.855Z,23.30
2022-08-05T18:10:11.034Z,23.00
2022-08-05T18:12:38.516Z,22.90
2022-08-05T18:15:06.415Z,22.60
2022-08-05T18:18:01.356Z,22.50
2022-08-05T18:20:28.942Z,22.40
2022-08-05T18:22:57.409Z,22.30
2022-08-05T18:25:25.111Z,22.00
2022-08-05T18:27:52.800Z,21.90
2022-08-05T18:30:19.761Z,21.80
2022-08-05T18:32:53.111Z,21.40
2022-08-05T18:35:20.989Z,21.40
2022-08-05T18:38:08.873Z,21.30
2022-08-05T18:41:53.730Z,21.10
2022-08-05T18:43:23.186Z,21.10
2022-08-05T18:45:49.852Z,20.90
2022-08-05T18:48:31.048Z,20.90
2022-08-05T18:52:05.107Z,20.80
2022-08-05T18:54:05.645Z,20.80
2022-08-05T18:56:33.171Z,20.80
2022-08-05T18:59:01.724Z,20.70
2022-08-05T19:01:47.195Z,20.60
2022-08-05T19:04:15.050Z,20.50
2022-08-05T19:06:53.717Z,20.50
2022-08-05T19:09:21.120Z,20.50
2022-08-05T19:11:59.916Z,20.50
2022-08-05T19:14:37.930Z,20.50
2022-08-05T19:17:16.507Z,20.50
2022-08-05T19:19:47.026Z,20.60
2022-08-05T19:22:17.067Z,20.60
2022-08-05T19:24:55.952Z,20.60
2022-08-05T19:27:27.846Z,20.70
2022-08-05T19:29:57.658Z,20.70
2022-08-05T19:32:26.096Z,20.80
2022-08-05T19:34:55.777Z,20.70
2022-08-05T19:37:35.231Z,20.70
2022-08-05T19:40:11.193Z,20.60
2022-08-05T19:42:38.874Z,20.40
2022-08-05T19:45:07.191Z,20.20
2022-08-05T19:47:37.636Z,20.20
2022-08-05T19:50:06.180Z,20.20
2022-08-05T19:52:34.738Z,20.10
2022-08-05T19:55:06.959Z,20.10
2022-08-05T19:58:19.425Z,20.00
2022-08-05T20:00:36.372Z,19.90
2022-08-05T20:03:08.494Z,19.90
2022-08-05T20:05:43.430Z,19.90
2022-08-05T20:08:17.520Z,19.90
2022-08-05T20:10:44.206Z,19.80
2022-08-05T20:13:16.197Z,19.70
2022-08-05T20:15:51.840Z,19.60
2022-08-05T20:18:33.408Z,19.60
2022-08-05T20:21:05.036Z,19.40
2022-08-05T20:23:40.147Z,19.40
2022-08-05T20:26:25.252Z,19.40
2022-08-05T20:28:55.914Z,19.30
2022-08-05T20:31:37.299Z,19.30
2022-08-05T20:34:12.448Z,19.30
2022-08-05T20:36:43.439Z,19.20
2022-08-05T20:39:13.005Z,19.20
2022-08-05T20:41:44.190Z,19.20
2022-08-05T20:44:19.354Z,19.20
2022-08-05T20:47:01.296Z,19.20
2022-08-05T20:49:28.116Z,19.20
2022-08-05T20:51:57.242Z,19.20
2022-08-05T20:54:43.025Z,19.20
2022-08-05T20:57:41.928Z,19.10
2022-08-05T21:00:21.298Z,19.10
2022-08-05T21:02:56.955Z,19.10
2022-08-05T21:05:24.643Z,19.10
2022-08-05T21:07:52.214Z,19.10
2022-08-05T21:10:19.526Z,19.00
2022-08-05T21:13:08.856Z,19.00
2022-08-05T21:15:33.911Z,19.00
2022-08-05T21:18:00.830Z,19.00
2022-08-05T21:20:33.170Z,19.00
2022-08-05T21:23:00.936Z,19.00
2022-08-05T21:25:33.736Z,18.90
2022-08-05T21:28:01.996Z,18.90
2022-08-05T21:30:28.665Z,18.80
2022-08-05T21:32:55.356Z,18.70
2022-08-05T21:35:29.775Z,18.70
2022-08-05T21:37:57.439Z,18.60
2022-08-05T21:40:24.839Z,18.60
2022-08-05T21:42:53.556Z,18.50
2022-08-05T21:45:24.472Z,18.50
2022-08-05T21:47:56.594Z,18.40
2022-08-05T21:50:27.496Z,18.40
2022-08-05T21:52:58.739Z,18.30
2022-08-05T21:55:42.883Z,18.40
2022-08-05T21:58:19.249Z,18.40
2022-08-05T22:00:50.947Z,18.40
2022-08-05T22:03:48.285Z,18.40
2022-08-05T22:06:06.313Z,18.40
2022-08-05T22:08:35.006Z,18.50
2022-08-05T22:11:01.633Z,18.50
2022-08-05T22:14:18.331Z,18.50
2022-08-05T22:16:39.490Z,18.40
2022-08-05T22:19:02.383Z,18.40
2022-08-05T22:21:29.139Z,18.40
2022-08-05T22:24:39.711Z,18.40
2022-08-05T22:27:21.072Z,18.40
2022-08-05T22:29:48.085Z,18.40
2022-08-05T22:32:17.195Z,18.40
2022-08-05T22:34:44.439Z,18.40
2022-08-05T22:37:12.749Z,18.40
2022-08-05T22:39:39.684Z,18.40
2022-08-05T22:42:12.734Z,18.50
2022-08-05T22:44:48.294Z,18.40
2022-08-05T22:47:28.972Z,18.40
2022-08-05T22:50:19.178Z,18.40
2022-08-05T22:52:44.962Z,18.30
2022-08-05T22:55:19.257Z,18.20
2022-08-05T22:57:47.033Z,18.30
2022-08-05T23:00:18.315Z,18.20
2022-08-05T23:02:48.285Z,18.10
2022-08-05T23:05:16.307Z,18.10
2022-08-05T23:07:48.253Z,18.00
2022-08-05T23:10:20.280Z,17.90
2022-08-05T23:12:51.697Z,17.90
2022-08-05T23:15:22.460Z,17.80
2022-08-05T23:18:00.737Z,17.90
2022-08-05T23:20:28.585Z,17.80
2022-08-05T23:22:55.901Z,17.80
2022-08-05T23:25:54.557Z,17.80
2022-08-05T23:28:12.022Z,17.70
2022-08-05T23:30:39.811Z,17.70
2022-08-05T23:33:16.387Z,17.60
2022-08-05T23:35:49.999Z,17.60
2022-08-05T23:38:16.901Z,17.50
2022-08-05T23:40:49.463Z,17.50
2022-08-05T23:43:24.811Z,17.40
2022-08-05T23:46:04.203Z,17.40
2022-08-05T23:48:30.905Z,17.30
2022-08-05T23:50:58.668Z,17.30
2022-08-05T23:53:28.354Z,17.30
2022-08-05T23:56:12.778Z,17.30
2022-08-05T23:58:46.756Z,17.30
